Time;durP1;ratioP1;P1;durP2;ratioP2;P2;SDS_P1;SDS_P2;PMS_P1;PMS_P2;Temp;Humidity;BMP_temperature;BMP_pressure;BME280_temperature;BME280_humidity;BME280_pressure;Samples;Min_cycle;Max_cycle;Signal;HPM_P1;HPM_P2
2022/07/30 00:01:50;;;;;;;9.63;4.78;;;;;;;23.06;53.81;99893.19;4984165;28;20116;-83
2022/07/30 00:04:19;;;;;;;7.05;5.35;;;;;;;22.94;53.94;99901.09;4954775;28;20894;-83
2022/07/30 00:06:45;;;;;;;6.70;5.25;;;;;;;22.90;53.82;99901.78;4968458;28;20137;-83
2022/07/30 00:09:12;;;;;;;7.00;5.20;;;;;;;22.90;53.66;99915.31;4981135;28;20437;-83
2022/07/30 00:11:39;;;;;;;6.97;4.55;;;;;;;22.88;53.52;99915.50;4980995;28;20518;-83
2022/07/30 00:14:07;;;;;;;7.03;4.68;;;;;;;22.84;53.95;99908.84;4984726;28;20050;-83
2022/07/30 00:16:33;;;;;;;5.95;5.15;;;;;;;22.93;54.90;99923.00;4982049;28;20049;-83
2022/07/30 00:19:01;;;;;;;6.68;4.50;;;;;;;22.92;54.67;99916.75;4983616;28;20053;-83
2022/07/30 00:21:28;;;;;;;7.30;4.80;;;;;;;22.76;54.81;99926.16;4982930;28;20502;-83
2022/07/30 00:24:05;;;;;;;5.68;4.20;;;;;;;22.74;54.66;99922.88;4998354;28;20104;-83
2022/07/30 00:26:31;;;;;;;5.30;4.80;;;;;;;22.73;54.70;99912.25;4998553;28;20046;-83
2022/07/30 00:28:58;;;;;;;6.32;5.07;;;;;;;22.75;54.83;99910.97;4994856;28;20058;-83
2022/07/30 00:31:25;;;;;;;6.97;5.13;;;;;;;22.65;55.39;99899.75;4979701;28;20514;-82
2022/07/30 00:33:52;;;;;;;6.78;5.07;;;;;;;22.62;56.00;99892.09;4981155;28;20413;-83
2022/07/30 00:36:19;;;;;;;8.02;5.53;;;;;;;22.73;55.78;99883.28;4985638;28;20046;-83
2022/07/30 00:38:46;;;;;;;6.57;5.60;;;;;;;22.61;56.12;99886.88;4983741;28;20043;-82
2022/07/30 00:41:13;;;;;;;8.07;5.57;;;;;;;22.59;56.29;99888.94;4983363;28;20081;-83
2022/07/30 00:43:42;;;;;;;6.95;5.43;;;;;;;22.55;56.19;99880.44;4984127;28;20057;-82
2022/07/30 00:46:09;;;;;;;6.03;5.20;;;;;;;22.54;56.05;99889.59;4972373;28;20039;-82
2022/07/30 00:48:36;;;;;;;5.68;5.10;;;;;;;22.52;56.17;99892.53;4996894;28;20047;-83
2022/07/30 00:51:03;;;;;;;7.03;5.82;;;;;;;22.56;56.16;99886.69;4980519;28;20375;-82
2022/07/30 00:53:30;;;;;;;7.30;5.28;;;;;;;22.52;56.36;99889.00;4984244;28;20042;-82
2022/07/30 00:55:56;;;;;;;9.05;5.78;;;;;;;22.49;56.61;99894.81;4982833;28;20062;-83
2022/07/30 00:58:24;;;;;;;6.88;5.63;;;;;;;22.50;56.86;99891.06;4996830;28;20531;-83
2022/07/30 01:00:51;;;;;;;5.72;5.13;;;;;;;22.50;56.41;99891.91;4963505;28;20064;-83
2022/07/30 01:03:18;;;;;;;8.18;5.20;;;;;;;22.42;56.82;99888.59;4966141;28;20050;-83
2022/07/30 01:05:45;;;;;;;6.28;5.55;;;;;;;22.36;56.73;99892.97;4983890;28;20383;-82
2022/07/30 01:08:12;;;;;;;7.60;5.68;;;;;;;22.34;57.18;99892.34;4963906;28;20049;-82
2022/07/30 01:10:39;;;;;;;8.40;5.80;;;;;;;22.31;57.51;99893.63;4994620;28;20118;-83
2022/07/30 01:13:06;;;;;;;7.78;6.45;;;;;;;22.40;57.07;99886.09;4984793;28;20050;-83
2022/07/30 01:15:34;;;;;;;8.50;5.60;;;;;;;22.31;57.41;99885.50;4976840;28;20050;-82
2022/07/30 01:18:03;;;;;;;8.13;5.95;;;;;;;22.23;57.66;99885.69;4980801;28;20121;-84
2022/07/30 01:20:37;;;;;;;9.13;6.60;;;;;;;22.15;58.06;99887.78;4983073;28;20046;-84
2022/07/30 01:23:13;;;;;;;6.15;5.53;;;;;;;22.07;58.28;99889.66;4967376;28;20050;-84
2022/07/30 01:25:55;;;;;;;7.60;6.10;;;;;;;22.01;58.57;99890.50;4965527;28;20034;-83
2022/07/30 01:28:26;;;;;;;6.38;5.55;;;;;;;22.11;58.16;99884.66;4983193;28;20532;-83
2022/07/30 01:30:54;;;;;;;7.95;6.20;;;;;;;22.13;58.27;99881.75;4963850;28;20048;-84
2022/07/30 01:33:22;;;;;;;7.25;6.07;;;;;;;22.17;57.91;99874.88;4962583;28;20058;-83
2022/07/30 01:35:49;;;;;;;6.63;5.93;;;;;;;22.15;58.05;99875.06;4970276;28;20053;-83
2022/07/30 01:38:20;;;;;;;9.68;6.10;;;;;;;22.09;58.38;99878.63;4950502;28;20494;-83
2022/07/30 01:40:50;;;;;;;7.90;5.85;;;;;;;21.99;58.75;99881.75;4981407;28;20043;-82
2022/07/30 01:43:19;;;;;;;7.82;6.03;;;;;;;22.02;58.63;99869.69;4965571;28;20053;-82
2022/07/30 01:45:48;;;;;;;6.75;5.72;;;;;;;21.96;58.89;99876.78;4950974;28;20054;-82
2022/07/30 01:48:19;;;;;;;8.40;6.15;;;;;;;21.90;59.00;99874.88;4978637;28;20050;-83
2022/07/30 01:50:50;;;;;;;8.00;5.95;;;;;;;21.87;59.24;99873.44;4977189;28;20524;-83
2022/07/30 01:53:20;;;;;;;6.25;5.53;;;;;;;21.94;58.88;99868.03;4958821;28;20050;-87
2022/07/30 01:55:47;;;;;;;6.70;6.10;;;;;;;21.86;59.03;99873.66;4999906;28;20046;-87
2022/07/30 01:58:18;;;;;;;7.10;6.22;;;;;;;21.81;59.07;99873.44;4985046;28;20046;-87
2022/07/30 02:00:48;;;;;;;9.53;5.97;;;;;;;21.88;58.60;99869.72;4982132;28;20052;-86
2022/07/30 02:03:15;;;;;;;8.05;6.05;;;;;;;21.86;58.70;99874.47;4964811;28;20450;-86
2022/07/30 02:05:49;;;;;;;7.95;6.05;;;;;;;21.71;58.48;99879.25;4993497;28;20506;-87
2022/07/30 02:08:39;;;;;;;7.97;6.00;;;;;;;21.71;58.60;99887.38;4971685;28;20046;-86
2022/07/30 02:11:08;;;;;;;7.60;5.53;;;;;;;21.70;58.53;99882.16;4980996;28;20093;-87
2022/07/30 02:13:49;;;;;;;5.95;5.43;;;;;;;21.51;59.33;99881.13;4974708;28;20113;-85
2022/07/30 02:16:23;;;;;;;7.65;5.43;;;;;;;21.57;59.20;99891.91;5001934;28;20466;-87
2022/07/30 02:19:02;;;;;;;8.13;5.65;;;;;;;21.63;58.65;99893.81;4981953;28;20112;-87
2022/07/30 02:21:41;;;;;;;5.78;5.22;;;;;;;21.59;59.19;99895.25;4996879;28;20490;-87
2022/07/30 02:28:06;;;;;;;8.73;6.15;;;;;;;21.33;59.60;99890.63;4947707;28;20050;-87
2022/07/30 02:30:35;;;;;;;6.22;5.45;;;;;;;21.41;59.52;99898.56;4975433;28;20466;-86
2022/07/30 02:33:09;;;;;;;6.25;5.65;;;;;;;21.34;59.57;99892.25;4952508;28;20046;-83
2022/07/30 02:35:36;;;;;;;6.50;5.75;;;;;;;21.36;59.63;99898.31;4985601;28;20060;-83
2022/07/30 02:38:04;;;;;;;9.18;6.00;;;;;;;21.41;59.58;99912.06;4955220;28;20042;-83
2022/07/30 02:40:31;;;;;;;7.13;6.43;;;;;;;21.33;59.55;99906.81;4969212;28;20058;-83
2022/07/30 02:43:00;;;;;;;6.65;5.57;;;;;;;21.36;59.56;99914.50;4953200;28;20058;-83
2022/07/30 02:45:28;;;;;;;7.38;5.90;;;;;;;21.32;59.63;99907.88;4971555;28;20439;-83
2022/07/30 02:48:02;;;;;;;10.13;5.82;;;;;;;21.20;59.90;99913.03;5000819;28;20045;-83
2022/07/30 02:50:29;;;;;;;6.68;5.85;;;;;;;21.24;59.67;99922.38;4931337;28;20066;-83
2022/07/30 02:52:58;;;;;;;10.43;6.57;;;;;;;21.19;59.91;99929.41;4972475;28;20050;-83
2022/07/30 02:55:27;;;;;;;8.18;6.20;;;;;;;21.21;59.92;99925.47;4970208;28;20077;-83
2022/07/30 02:57:55;;;;;;;9.05;7.35;;;;;;;21.32;59.56;99921.38;4980271;28;20439;-83
2022/07/30 03:00:23;;;;;;;8.02;6.57;;;;;;;21.36;59.60;99932.59;4981016;28;20387;-84
2022/07/30 03:02:51;;;;;;;8.07;6.10;;;;;;;21.18;60.66;99930.47;4980477;28;20466;-83
2022/07/30 03:05:23;;;;;;;8.15;6.35;;;;;;;21.24;60.38;99937.75;4972128;28;20049;-83
2022/07/30 03:07:54;;;;;;;8.13;6.22;;;;;;;21.05;60.90;99935.81;4992304;28;20501;-83
2022/07/30 03:10:21;;;;;;;6.90;5.93;;;;;;;21.09;60.34;99937.91;4997448;28;20513;-86
2022/07/30 03:12:49;;;;;;;10.98;6.20;;;;;;;21.07;60.32;99937.28;4981367;28;20050;-87
2022/07/30 03:15:17;;;;;;;6.80;5.75;;;;;;;21.07;60.05;99942.69;4954452;28;20049;-87
2022/07/30 03:17:45;;;;;;;6.82;6.15;;;;;;;21.03;59.89;99942.22;4980263;28;20048;-87
2022/07/30 03:20:14;;;;;;;8.20;6.32;;;;;;;21.06;59.87;99945.56;4981321;28;20054;-83
2022/07/30 03:22:44;;;;;;;8.88;6.28;;;;;;;21.07;60.14;99950.78;4970932;28;20066;-83
2022/07/30 03:25:13;;;;;;;7.43;6.18;;;;;;;21.02;60.14;99939.75;5013693;28;20516;-83
2022/07/30 03:27:41;;;;;;;9.32;6.45;;;;;;;21.07;60.04;99944.56;4993326;28;20052;-84
2022/07/30 03:30:11;;;;;;;11.77;6.35;;;;;;;20.99;60.44;99945.56;4999009;28;20046;-84
2022/07/30 03:32:38;;;;;;;8.20;6.55;;;;;;;21.02;60.29;99951.38;4950213;28;20058;-82
2022/07/30 03:35:10;;;;;;;7.88;5.95;;;;;;;20.98;60.54;99949.28;4949444;28;20060;-83
2022/07/30 03:37:45;;;;;;;10.57;6.88;;;;;;;21.02;60.34;99943.28;4969578;28;20046;-83
2022/07/30 03:40:12;;;;;;;9.18;6.35;;;;;;;21.05;60.10;99955.53;4966301;28;20508;-83
2022/07/30 03:42:40;;;;;;;10.32;7.50;;;;;;;21.05;60.41;99960.13;4978448;28;20133;-83
2022/07/30 03:45:07;;;;;;;7.15;6.05;;;;;;;20.98;61.04;99954.69;4998077;28;20051;-83
2022/07/30 03:47:37;;;;;;;7.97;6.75;;;;;;;20.97;60.89;99955.72;4987214;28;20664;-83
2022/07/30 03:50:05;;;;;;;8.15;6.63;;;;;;;21.03;60.74;99960.31;4965680;28;20138;-86
2022/07/30 03:52:37;;;;;;;8.00;6.60;;;;;;;20.86;61.00;99959.78;5001074;28;20478;-86
2022/07/30 03:55:09;;;;;;;7.75;6.40;;;;;;;20.84;61.12;99959.19;4955198;28;20490;-83
2022/07/30 03:57:48;;;;;;;6.97;6.25;;;;;;;20.82;60.73;99969.34;4933361;28;20495;-83
2022/07/30 04:00:17;;;;;;;11.63;6.80;;;;;;;20.81;60.89;99971.22;4950517;28;20069;-83
2022/07/30 04:02:48;;;;;;;7.85;6.05;;;;;;;20.79;61.12;99975.97;4981922;28;20045;-83
2022/07/30 04:05:35;;;;;;;9.05;6.43;;;;;;;20.81;60.64;99973.06;4981445;28;20129;-83
2022/07/30 04:08:08;;;;;;;9.38;6.75;;;;;;;20.83;61.26;99976.41;4968184;28;20042;-83
2022/07/30 04:10:34;;;;;;;9.18;7.07;;;;;;;20.76;61.23;99984.47;4971391;28;20110;-83
2022/07/30 04:13:04;;;;;;;8.15;6.55;;;;;;;20.81;60.79;99971.22;4970456;28;20046;-83
2022/07/30 04:15:44;;;;;;;7.70;6.60;;;;;;;20.74;61.48;99991.09;4977739;28;20455;-83
2022/07/30 04:18:36;;;;;;;10.13;7.13;;;;;;;20.77;61.74;99988.00;4932297;28;20130;-82
2022/07/30 04:21:04;;;;;;;11.30;7.20;;;;;;;20.85;61.35;99990.53;4930395;28;20046;-87
2022/07/30 04:23:32;;;;;;;10.05;7.78;;;;;;;20.84;61.46;99990.72;4964948;28;20130;-87
2022/07/30 04:26:20;;;;;;;8.98;6.72;;;;;;;21.29;61.04;99991.16;4962246;28;20047;-87
2022/07/30 04:29:13;;;;;;;9.70;7.05;;;;;;;22.06;57.73;99995.34;4959948;28;20454;-83
2022/07/30 04:31:46;;;;;;;9.55;6.78;;;;;;;23.22;57.02;99992.06;4937202;28;20050;-83
2022/07/30 04:34:31;;;;;;;8.55;7.22;;;;;;;23.90;54.50;99996.97;4978938;28;20042;-83
2022/07/30 04:36:58;;;;;;;7.05;6.35;;;;;;;24.16;52.73;99993.22;4998709;28;20085;-83
2022/07/30 04:39:27;;;;;;;8.10;7.00;;;;;;;23.90;52.76;99999.66;4987630;28;20050;-84
2022/07/30 04:41:53;;;;;;;9.73;7.05;;;;;;;23.52;53.62;100005.91;4945275;28;20042;-83
2022/07/30 04:44:33;;;;;;;9.80;8.18;;;;;;;22.95;55.32;100012.97;4962756;28;20093;-83
2022/07/30 04:47:18;;;;;;;12.20;8.23;;;;;;;22.67;56.29;100019.50;4946901;28;20488;-83
2022/07/30 04:50:07;;;;;;;9.90;8.88;;;;;;;22.31;57.48;100022.63;4965443;28;20097;-82
2022/07/30 04:52:35;;;;;;;10.38;8.88;;;;;;;22.26;57.31;100025.09;4980569;28;20053;-83
2022/07/30 04:55:06;;;;;;;13.30;8.75;;;;;;;22.14;58.35;100027.59;4933472;28;20051;-83
2022/07/30 04:57:34;;;;;;;14.98;8.65;;;;;;;22.09;58.43;100022.78;4939079;28;20133;-83
2022/07/30 05:00:05;;;;;;;10.80;8.35;;;;;;;22.06;58.18;100020.50;4962940;28;20100;-83
2022/07/30 05:02:36;;;;;;;12.40;8.85;;;;;;;21.99;58.53;100032.34;4978349;28;20466;-83
2022/07/30 05:05:04;;;;;;;10.70;8.43;;;;;;;22.00;58.42;100026.72;4965487;28;20042;-83
2022/07/30 05:07:31;;;;;;;10.73;8.75;;;;;;;21.91;58.87;100030.66;4970573;28;20510;-83
2022/07/30 05:10:00;;;;;;;10.27;8.63;;;;;;;21.84;59.03;100030.66;4996314;28;20129;-83
2022/07/30 05:12:32;;;;;;;10.60;9.40;;;;;;;21.74;59.26;100029.38;4986591;28;20049;-83
2022/07/30 05:14:59;;;;;;;12.90;8.65;;;;;;;21.75;59.29;100026.44;4935483;28;20829;-82
2022/07/30 05:17:27;;;;;;;10.68;8.98;;;;;;;21.78;59.15;100036.88;4995544;28;20441;-83
2022/07/30 05:19:55;;;;;;;13.35;10.30;;;;;;;21.68;58.82;100039.13;4978286;28;20047;-83
2022/07/30 05:22:24;;;;;;;11.90;9.73;;;;;;;21.72;59.01;100039.56;4980229;28;20142;-83
2022/07/30 05:24:51;;;;;;;11.95;9.45;;;;;;;21.69;59.06;100046.19;4998578;28;20046;-83
2022/07/30 05:27:19;;;;;;;12.52;9.30;;;;;;;21.78;59.14;100039.59;4969824;28;20043;-83
2022/07/30 05:29:45;;;;;;;13.75;9.50;;;;;;;21.77;59.00;100037.06;4978759;28;20132;-83
2022/07/30 05:32:17;;;;;;;13.50;8.82;;;;;;;21.85;58.79;100045.84;4995635;28;20050;-83
2022/07/30 05:34:44;;;;;;;13.00;9.77;;;;;;;21.87;58.60;100053.72;4962983;28;20076;-83
2022/07/30 05:37:16;;;;;;;10.80;9.65;;;;;;;21.91;58.54;100054.19;4976055;28;20058;-83
2022/07/30 05:39:45;;;;;;;14.40;9.60;;;;;;;21.90;58.60;100047.91;4990944;28;20046;-83
2022/07/30 05:42:49;;;;;;;22.67;10.20;;;;;;;21.77;59.00;100047.88;4899850;28;20470;-82
2022/07/30 05:45:18;;;;;;;13.43;9.55;;;;;;;21.76;59.14;100046.22;4987516;28;20113;-83
2022/07/30 05:47:45;;;;;;;12.07;9.65;;;;;;;21.81;58.95;100052.69;4969908;28;20138;-82
2022/07/30 05:50:12;;;;;;;10.68;9.10;;;;;;;22.03;58.69;100049.81;4936618;28;20206;-83
2022/07/30 05:52:39;;;;;;;16.02;10.38;;;;;;;21.98;58.17;100052.28;5001958;28;20758;-83
2022/07/30 05:55:26;;;;;;;14.60;9.32;;;;;;;22.01;58.48;100057.31;4983457;28;20141;-82
2022/07/30 05:58:07;;;;;;;13.98;9.85;;;;;;;21.96;58.62;100052.53;4977982;28;20141;-82
2022/07/30 06:00:34;;;;;;;11.15;8.98;;;;;;;21.99;58.57;100057.50;4969034;28;20046;-82
2022/07/30 06:03:01;;;;;;;9.70;8.68;;;;;;;22.09;58.36;100057.94;4968545;28;20042;-83
2022/07/30 06:05:48;;;;;;;12.48;8.90;;;;;;;22.10;58.41;100056.06;4979223;28;20053;-83
2022/07/30 06:08:16;;;;;;;10.63;8.75;;;;;;;22.15;58.20;100060.88;4987954;28;20039;-83
2022/07/30 06:10:45;;;;;;;13.02;8.75;;;;;;;22.11;58.56;100063.16;4972087;28;20047;-82
2022/07/30 06:13:11;;;;;;;9.68;8.45;;;;;;;22.04;58.39;100062.31;4972631;28;20431;-82
2022/07/30 06:15:38;;;;;;;12.20;9.30;;;;;;;22.24;58.33;100056.97;4999838;28;20517;-83
2022/07/30 06:18:09;;;;;;;12.35;8.52;;;;;;;22.14;58.28;100070.84;4955531;28;20145;-83
2022/07/30 06:20:42;;;;;;;11.95;8.82;;;;;;;22.21;58.28;100066.31;4976977;28;20112;-84
2022/07/30 06:23:18;;;;;;;10.93;7.70;;;;;;;22.21;57.92;100065.47;4953697;28;20042;-83
2022/07/30 06:26:05;;;;;;;13.40;8.20;;;;;;;22.31;57.90;100072.16;4999312;28;20053;-83
2022/07/30 06:28:33;;;;;;;11.00;8.10;;;;;;;22.35;57.11;100067.16;4980756;28;20394;-83
2022/07/30 06:31:13;;;;;;;13.32;8.80;;;;;;;22.34;56.63;100076.31;4988983;28;20125;-83
2022/07/30 06:33:41;;;;;;;12.90;7.95;;;;;;;22.39;56.64;100067.56;4952560;28;20713;-83
2022/07/30 06:36:09;;;;;;;9.98;7.40;;;;;;;22.50;55.94;100066.97;4976157;28;20042;-82
2022/07/30 06:38:50;;;;;;;12.18;8.23;;;;;;;22.56;55.88;100074.25;4996527;28;20047;-83
2022/07/30 06:41:24;;;;;;;12.02;8.27;;;;;;;22.56;55.51;100076.13;4969043;28;20038;-83
2022/07/30 06:43:52;;;;;;;12.95;7.45;;;;;;;22.59;55.55;100079.22;4974297;28;20038;-83
2022/07/30 06:46:38;;;;;;;12.52;7.95;;;;;;;22.71;55.50;100079.44;4999883;28;20443;-83
2022/07/30 06:49:04;;;;;;;10.55;7.38;;;;;;;22.79;54.86;100081.09;5001352;28;20046;-84
2022/07/30 06:51:32;;;;;;;10.93;7.25;;;;;;;22.78;54.68;100082.97;4969984;28;20050;-83
2022/07/30 06:53:59;;;;;;;13.57;8.07;;;;;;;22.86;54.69;100079.22;4937350;28;20105;-83
2022/07/30 06:56:36;;;;;;;11.85;7.53;;;;;;;22.86;53.65;100081.94;4997847;28;20043;-83
2022/07/30 06:59:05;;;;;;;12.77;7.13;;;;;;;22.93;53.49;100074.66;4969731;28;20133;-83
2022/07/30 07:02:03;;;;;;;11.25;7.63;;;;;;;22.85;53.90;100086.53;4954349;28;20049;-83
2022/07/30 07:04:38;;;;;;;11.15;7.32;;;;;;;22.84;52.74;100079.44;4986925;28;20044;-83
2022/07/30 07:07:05;;;;;;;17.70;8.50;;;;;;;22.93;52.20;100078.19;4997447;28;20137;-84
2022/07/30 07:09:39;;;;;;;10.27;7.00;;;;;;;22.95;51.91;100076.09;4932560;28;20046;-83
2022/07/30 07:12:28;;;;;;;11.85;6.50;;;;;;;23.00;51.73;100080.91;4955485;28;20384;-83
2022/07/30 07:14:55;;;;;;;12.00;6.95;;;;;;;23.07;52.31;100079.00;5001194;28;20042;-83
2022/07/30 07:17:22;;;;;;;9.95;7.55;;;;;;;23.12;51.59;100079.19;4951555;28;20129;-83
2022/07/30 07:20:04;;;;;;;9.82;6.85;;;;;;;23.15;51.73;100073.38;5010864;28;20097;-83
2022/07/30 07:22:38;;;;;;;11.88;6.57;;;;;;;23.22;51.40;100075.22;4948371;28;20054;-83
2022/07/30 07:25:07;;;;;;;12.52;7.70;;;;;;;23.26;51.12;100073.78;4986832;28;20043;-83
2022/07/30 07:27:35;;;;;;;11.85;7.47;;;;;;;23.26;51.43;100076.47;4955353;28;20498;-83
2022/07/30 07:30:04;;;;;;;10.90;7.57;;;;;;;23.25;51.01;100089.16;4970161;28;20057;-83
2022/07/30 07:32:36;;;;;;;;;;;;;;;23.06;50.59;100081.94;4969326;28;20058;-83
2022/07/30 07:35:04;;;;;;;11.77;7.43;;;;;;;23.29;51.26;100078.75;4981113;28;19922;-87
2022/07/30 07:37:33;;;;;;;12.07;7.68;;;;;;;23.32;51.17;100068.31;4969698;28;20042;-87
2022/07/30 07:40:02;;;;;;;13.10;7.70;;;;;;;23.36;50.50;100079.56;4985641;28;20113;-86
2022/07/30 07:42:32;;;;;;;12.15;7.70;;;;;;;23.32;50.50;100081.03;4984200;28;20562;-87
2022/07/30 07:45:00;;;;;;;10.23;7.22;;;;;;;23.32;50.51;100071.03;4981271;28;20129;-87
2022/07/30 07:47:42;;;;;;;10.23;6.72;;;;;;;23.30;49.82;100078.53;4977601;28;20490;-87
2022/07/30 07:50:40;;;;;;;14.70;6.88;;;;;;;23.42;50.26;100069.75;4878793;28;20046;-87
2022/07/30 07:53:15;;;;;;;9.65;6.43;;;;;;;23.47;49.88;100075.38;4939455;28;20125;-87
2022/07/30 07:55:41;;;;;;;13.43;7.18;;;;;;;23.50;49.77;100081.19;4995193;28;20043;-83
2022/07/30 07:58:12;;;;;;;8.30;6.63;;;;;;;23.53;49.98;100079.91;5016935;28;20474;-83
2022/07/30 08:00:43;;;;;;;11.18;7.40;;;;;;;23.55;49.33;100084.06;4949898;28;20042;-83
2022/07/30 08:03:10;;;;;;;10.65;6.13;;;;;;;23.56;49.79;100077.63;4968190;28;20381;-83
2022/07/30 08:05:37;;;;;;;13.70;7.43;;;;;;;23.55;49.57;100075.13;5000554;28;20445;-83
2022/07/30 08:08:44;;;;;;;10.35;7.18;;;;;;;23.60;49.53;100089.69;4966922;28;20042;-84
2022/07/30 08:11:29;;;;;;;13.52;7.65;;;;;;;23.63;48.95;100088.41;4983296;28;20039;-83
2022/07/30 08:14:16;;;;;;;15.63;7.78;;;;;;;23.60;49.02;100075.31;4966796;28;20066;-83
2022/07/30 08:17:01;;;;;;;13.32;7.07;;;;;;;23.55;48.82;100072.41;4976026;28;20446;-83
2022/07/30 08:19:50;;;;;;;12.82;7.05;;;;;;;23.64;49.16;100070.31;4975580;28;20528;-82
2022/07/30 08:22:20;;;;;;;13.93;7.55;;;;;;;23.70;48.91;100072.13;4981957;28;20054;-83
2022/07/30 08:24:47;;;;;;;11.75;7.57;;;;;;;23.68;48.12;100068.81;4997059;28;20653;-84
2022/07/30 08:27:14;;;;;;;13.80;6.97;;;;;;;23.72;48.38;100078.19;5014464;28;20042;-86
2022/07/30 08:29:41;;;;;;;11.18;7.07;;;;;;;23.72;48.90;100068.19;4982664;28;20061;-86
2022/07/30 08:32:08;;;;;;;11.65;7.05;;;;;;;23.74;48.34;100073.41;4996417;28;20128;-86
2022/07/30 08:34:37;;;;;;;12.95;7.10;;;;;;;23.82;48.58;100068.56;4967778;28;20053;-86
2022/07/30 08:37:04;;;;;;;7.95;5.95;;;;;;;23.89;48.48;100070.38;4970750;28;20079;-86
2022/07/30 08:39:33;;;;;;;12.43;6.53;;;;;;;23.92;48.33;100070.81;5001164;28;20069;-86
2022/07/30 08:42:03;;;;;;;14.70;6.78;;;;;;;23.92;47.95;100072.69;4996640;28;20046;-87
2022/07/30 08:44:32;;;;;;;12.57;6.85;;;;;;;23.93;47.31;100074.34;4967465;28;20494;-84
2022/07/30 08:47:01;;;;;;;8.35;5.88;;;;;;;23.93;47.82;100069.75;4974908;28;20204;-86
2022/07/30 08:49:47;;;;;;;17.00;6.75;;;;;;;23.98;47.68;100074.53;4998792;28;20125;-86
2022/07/30 08:52:17;;;;;;;13.43;7.63;;;;;;;24.01;47.67;100079.50;4972487;28;20049;-87
2022/07/30 08:54:50;;;;;;;11.43;6.05;;;;;;;24.10;47.44;100072.78;4982160;28;20051;-86
2022/07/30 08:57:22;;;;;;;10.55;7.05;;;;;;;24.10;45.93;100070.06;4965908;28;20076;-85
2022/07/30 08:59:50;;;;;;;11.23;7.20;;;;;;;24.13;46.59;100074.22;4998357;28;20076;-86
2022/07/30 09:02:29;;;;;;;11.52;6.85;;;;;;;24.18;46.53;100068.97;4976152;28;20051;-86
2022/07/30 09:05:03;;;;;;;10.80;6.65;;;;;;;24.23;46.26;100074.56;4965070;28;20503;-87
2022/07/30 09:08:02;;;;;;;10.88;6.10;;;;;;;24.18;45.31;100072.50;4952339;28;20038;-86
2022/07/30 09:10:34;;;;;;;8.80;6.95;;;;;;;24.22;45.31;100073.75;4978019;28;20058;-84
2022/07/30 09:13:01;;;;;;;8.25;5.80;;;;;;;24.30;45.64;100078.06;5013240;28;20417;-83
2022/07/30 09:15:28;;;;;;;12.05;6.20;;;;;;;24.20;44.41;100073.13;4969277;28;20046;-83
2022/07/30 09:18:00;;;;;;;11.23;5.70;;;;;;;24.17;44.17;100076.28;4997035;28;20077;-83
2022/07/30 09:20:33;;;;;;;10.45;6.72;;;;;;;24.25;44.50;100076.03;4961394;28;20050;-82
2022/07/30 09:23:03;;;;;;;7.78;5.78;;;;;;;24.34;44.61;100071.13;4979073;28;20046;-86
2022/07/30 09:25:37;;;;;;;14.48;6.55;;;;;;;24.25;42.89;100073.31;4950459;28;20059;-84
2022/07/30 09:28:35;;;;;;;13.63;6.68;;;;;;;24.23;43.45;100069.97;4943156;28;20066;-84
2022/07/30 09:31:52;;;;;;;8.27;5.70;;;;;;;24.21;43.62;100076.66;4917854;28;20054;-85
2022/07/30 09:34:42;;;;;;;8.10;5.93;;;;;;;24.31;43.12;100087.03;4925948;28;20611;-83
2022/07/30 09:37:27;;;;;;;9.95;5.97;;;;;;;24.35;43.41;100069.25;4995040;28;20697;-84
2022/07/30 09:40:17;;;;;;;8.45;5.15;;;;;;;24.46;43.58;100076.72;4968779;28;20406;-83
2022/07/30 09:43:10;;;;;;;7.15;4.85;;;;;;;24.52;43.94;100064.16;4957541;28;20049;-84
2022/07/30 09:45:53;;;;;;;13.52;7.15;;;;;;;24.55;42.24;100078.13;4931524;28;20072;-84
2022/07/30 09:48:25;;;;;;;12.95;7.05;;;;;;;24.61;41.97;100087.25;4944521;28;20497;-84
2022/07/30 09:50:53;;;;;;;12.65;7.00;;;;;;;24.61;41.88;100087.25;4963852;28;20046;-82
2022/07/30 09:53:23;;;;;;;9.23;6.57;;;;;;;24.56;41.26;100070.81;4961123;28;20133;-82
2022/07/30 09:55:50;;;;;;;8.98;5.63;;;;;;;24.56;41.86;100098.78;4962105;28;20367;-82
2022/07/30 09:58:18;;;;;;;12.15;6.63;;;;;;;24.54;41.53;100078.34;4947197;28;20051;-82
2022/07/30 10:00:56;;;;;;;8.27;6.82;;;;;;;24.58;40.86;100077.69;4946694;28;20063;-82
2022/07/30 10:03:44;;;;;;;13.68;6.95;;;;;;;24.48;41.01;100088.22;4928700;28;20054;-82
2022/07/30 10:06:33;;;;;;;16.08;6.18;;;;;;;24.48;41.66;100071.91;4956955;28;20051;-82
2022/07/30 10:09:05;;;;;;;;;;;;;;;24.50;43.00;100077.97;4989286;28;20046;-82
2022/07/30 10:11:47;;;;;;;7.32;5.15;;;;;;;24.68;42.37;100077.19;4973872;28;19933;-85
2022/07/30 10:14:14;;;;;;;8.45;6.35;;;;;;;24.64;41.08;100076.78;4982667;28;20156;-86
2022/07/30 10:16:41;;;;;;;8.85;6.28;;;;;;;24.71;41.45;100075.91;5011477;28;20050;-87
2022/07/30 10:19:11;;;;;;;7.10;4.68;;;;;;;24.77;41.50;100070.41;4967282;28;20050;-85
2022/07/30 10:22:03;;;;;;;7.75;5.25;;;;;;;24.75;40.86;100071.69;4952058;28;20051;-84
2022/07/30 10:24:49;;;;;;;9.07;5.85;;;;;;;24.75;40.50;100063.53;5012890;28;20133;-86
2022/07/30 10:27:36;;;;;;;14.32;7.07;;;;;;;24.82;40.53;100075.16;4978026;28;20046;-85
2022/07/30 10:30:21;;;;;;;9.85;6.65;;;;;;;24.83;40.30;100076.81;4965520;28;20050;-87
2022/07/30 10:32:53;;;;;;;8.65;5.78;;;;;;;24.86;40.90;100063.63;5014723;28;20042;-86
2022/07/30 10:35:26;;;;;;;10.80;6.60;;;;;;;24.90;39.85;100061.28;4979153;28;20043;-86
2022/07/30 10:38:07;;;;;;;7.55;6.13;;;;;;;24.93;39.22;100058.13;4937167;28;20047;-86
2022/07/30 10:40:37;;;;;;;11.68;6.28;;;;;;;24.96;39.55;100063.13;4954681;28;20043;-84
2022/07/30 10:43:30;;;;;;;9.18;6.22;;;;;;;24.95;39.70;100053.31;4955188;28;20043;-84
2022/07/30 10:46:22;;;;;;;10.53;6.07;;;;;;;25.01;39.95;100052.41;4975977;28;20385;-83
2022/07/30 10:48:49;;;;;;;11.50;6.00;;;;;;;25.11;40.26;100055.44;4999341;28;20044;-84
2022/07/30 10:51:21;;;;;;;11.25;6.15;;;;;;;25.09;39.13;100054.00;4983337;28;20633;-84
2022/07/30 10:54:00;;;;;;;8.80;6.80;;;;;;;25.15;39.87;100054.97;4922680;28;20517;-84
2022/07/30 10:56:27;;;;;;;10.82;6.63;;;;;;;25.06;39.32;100059.88;4983881;28;20061;-84
2022/07/30 10:58:59;;;;;;;13.20;7.35;;;;;;;25.04;39.53;100051.97;4973365;28;20165;-84
2022/07/30 11:01:46;;;;;;;12.80;7.30;;;;;;;25.01;40.00;100049.69;4986081;28;20061;-83
2022/07/30 11:04:26;;;;;;;11.23;7.05;;;;;;;25.02;39.80;100055.97;4969016;28;20486;-84
2022/07/30 11:07:47;;;;;;;9.60;6.78;;;;;;;24.96;37.88;100048.69;4981282;28;20085;-83
2022/07/30 11:10:36;;;;;;;12.35;5.78;;;;;;;25.02;38.95;100020.63;4871175;28;20070;-84
2022/07/30 11:13:04;;;;;;;9.57;5.47;;;;;;;25.22;39.47;100029.44;4979056;28;20499;-82
2022/07/30 11:15:58;;;;;;;8.27;6.05;;;;;;;25.23;38.32;100038.41;4960337;28;20361;-84
2022/07/30 11:18:25;;;;;;;;;;;;;;;25.18;38.35;100039.06;4956103;28;20057;-83
2022/07/30 11:21:23;;;;;;;7.35;6.13;;;;;;;25.11;38.46;100036.44;4984631;28;20016;-83
2022/07/30 11:23:50;;;;;;;6.45;5.75;;;;;;;25.23;39.17;100041.13;4945591;28;20038;-84
2022/07/30 11:26:40;;;;;;;7.18;5.40;;;;;;;25.13;38.26;100039.72;4998914;28;20046;-83
2022/07/30 11:29:40;;;;;;;7.63;5.45;;;;;;;25.04;38.69;100038.38;4982667;28;20053;-83
2022/07/30 11:32:31;;;;;;;8.48;5.85;;;;;;;25.09;38.41;100026.84;4934918;28;20146;-84
2022/07/30 11:35:23;;;;;;;7.25;5.53;;;;;;;25.15;38.51;100030.53;4982003;28;20057;-82
2022/07/30 11:38:11;;;;;;;6.25;5.00;;;;;;;25.19;38.89;100018.16;4942878;28;20030;-83
2022/07/30 11:41:01;;;;;;;8.65;5.35;;;;;;;25.30;38.75;100036.44;4952520;28;20050;-82
2022/07/30 11:43:32;;;;;;;10.25;5.43;;;;;;;25.37;38.68;100015.44;4951050;28;20393;-84
2022/07/30 11:46:13;;;;;;;8.57;5.80;;;;;;;25.42;38.43;100014.78;4969821;28;20089;-83
2022/07/30 11:49:07;;;;;;;7.50;4.43;;;;;;;25.40;39.22;100011.44;4939378;28;20540;-83
2022/07/30 11:51:40;;;;;;;6.80;4.57;;;;;;;25.51;39.37;100011.47;4963524;28;20058;-84
2022/07/30 11:54:09;;;;;;;8.38;5.57;;;;;;;25.58;38.45;100010.59;5008798;28;20042;-83
2022/07/30 11:56:36;;;;;;;10.93;5.15;;;;;;;25.64;38.26;100012.38;4981114;28;20069;-84
2022/07/30 11:59:04;;;;;;;8.77;5.07;;;;;;;25.68;38.43;100014.41;4984298;28;20053;-84